sim
Sign-in with your pilot id or email,
or register
Callsign
Passwort

Schedule Details

Flight Number: DLH120
Departure: Frankfurt Airport (EDDF) at 19:15
Arrival: Munich Airport (EDDM) at 20:10
Route: Lufthansa Passenger Schedule. Enter filed route here before submitting Pirep.

Weather Information
Getting current METAR information for EDDF 250220Z 24010KT 9999 -SHRA SCT008CB SCT025 12/10 Q0999 NOSIG
Getting current METAR information for EDDM 250220Z 23004KT 190V260 9999 -RA FEW008 SCT040 12/12 Q1002 TEMPO RA BKN008

Schedule Frequency

Route Map